sensor_id;sensor_type;location;lat;lon;timestamp;pressure;altitude;pressure_sealevel;temperature;humidity
57102;BME280;42982;54.558;18.508;2023-05-21T07:45:51;101733.59;;;31.57;27.58
57102;BME280;42982;54.558;18.508;2023-05-21T07:46:54;101727.16;;;30.48;28.80
57102;BME280;42982;54.558;18.508;2023-05-21T07:47:57;101737.72;;;29.84;29.79
57102;BME280;42982;54.558;18.508;2023-05-21T07:49:01;101729.59;;;29.27;31.07
57102;BME280;42982;54.558;18.508;2023-05-21T07:50:05;101734.75;;;28.68;31.81
57102;BME280;42982;54.558;18.508;2023-05-21T07:51:10;101735.16;;;28.17;33.49
57102;BME280;42982;54.558;18.508;2023-05-21T07:52:12;101733.22;;;27.94;33.30
57102;BME280;42982;54.558;18.508;2023-05-21T07:53:18;101734.88;;;27.57;33.68
57102;BME280;42982;54.558;18.508;2023-05-21T07:54:20;101739.81;;;27.24;34.07
57102;BME280;42982;54.558;18.508;2023-05-21T07:55:25;101741.50;;;26.94;34.43
57102;BME280;42982;54.558;18.508;2023-05-21T07:56:28;101739.91;;;26.57;34.95
57102;BME280;42982;54.558;18.508;2023-05-21T07:57:33;101734.59;;;26.49;35.55
57102;BME280;42982;54.558;18.508;2023-05-21T07:58:42;101751.47;;;26.63;36.07
57102;BME280;42982;54.558;18.508;2023-05-21T07:59:48;101740.44;;;26.63;35.37
57102;BME280;42982;54.558;18.508;2023-05-21T08:00:49;101747.59;;;26.48;35.46
57102;BME280;42982;54.558;18.508;2023-05-21T08:01:55;101742.66;;;26.42;35.69
57102;BME280;42982;54.558;18.508;2023-05-21T08:02:59;101742.50;;;26.34;36.02
57102;BME280;42982;54.558;18.508;2023-05-21T08:04:03;101748.03;;;26.03;35.86
57102;BME280;42982;54.558;18.508;2023-05-21T08:05:12;101743.09;;;25.80;36.96
57102;BME280;42982;54.558;18.508;2023-05-21T08:06:13;101736.94;;;25.71;37.46
57102;BME280;42982;54.558;18.508;2023-05-21T08:07:20;101739.44;;;25.76;37.37
57102;BME280;42982;54.558;18.508;2023-05-21T08:08:27;101742.97;;;25.89;37.24
57102;BME280;42982;54.558;18.508;2023-05-21T08:09:30;101745.63;;;25.85;37.67
57102;BME280;42982;54.558;18.508;2023-05-21T08:10:35;101743.38;;;25.91;37.34
57102;BME280;42982;54.558;18.508;2023-05-21T08:11:39;101741.34;;;26.04;36.98
57102;BME280;42982;54.558;18.508;2023-05-21T08:12:44;101744.00;;;26.00;36.22
57102;BME280;42982;54.558;18.508;2023-05-21T08:13:48;101740.91;;;26.02;35.56
57102;BME280;42982;54.558;18.508;2023-05-21T08:14:50;101745.63;;;26.01;36.04
57102;BME280;42982;54.558;18.508;2023-05-21T08:15:53;101743.91;;;25.81;36.27
57102;BME280;42982;54.558;18.508;2023-05-21T08:16:57;101745.63;;;25.85;36.89
57102;BME280;42982;54.558;18.508;2023-05-21T08:17:59;101754.69;;;25.86;37.08
57102;BME280;42982;54.558;18.508;2023-05-21T08:19:02;101746.13;;;25.91;37.12
57102;BME280;42982;54.558;18.508;2023-05-21T08:20:13;101744.78;;;25.85;35.71
57102;BME280;42982;54.558;18.508;2023-05-21T08:21:18;101749.41;;;25.81;35.95
57102;BME280;42982;54.558;18.508;2023-05-21T08:22:23;101748.28;;;25.54;36.05
57102;BME280;42982;54.558;18.508;2023-05-21T08:23:29;101740.19;;;25.45;36.60
57102;BME280;42982;54.558;18.508;2023-05-21T08:24:34;101735.38;;;25.42;36.60
57102;BME280;42982;54.558;18.508;2023-05-21T08:25:39;101737.28;;;25.26;37.04
57102;BME280;42982;54.558;18.508;2023-05-21T08:26:47;101735.88;;;25.32;37.56
57102;BME280;42982;54.558;18.508;2023-05-21T08:27:56;101739.06;;;25.34;37.26
57102;BME280;42982;54.558;18.508;2023-05-21T08:28:58;101749.19;;;25.30;36.29
57102;BME280;42982;54.558;18.508;2023-05-21T08:30:00;101733.63;;;25.22;36.10
57102;BME280;42982;54.558;18.508;2023-05-21T08:31:07;101740.09;;;25.01;37.43
57102;BME280;42982;54.558;18.508;2023-05-21T08:32:13;101739.19;;;24.97;37.23
57102;BME280;42982;54.558;18.508;2023-05-21T08:33:15;101744.91;;;24.92;37.66
57102;BME280;42982;54.558;18.508;2023-05-21T08:34:18;101735.22;;;24.70;37.83
57102;BME280;42982;54.558;18.508;2023-05-21T08:35:28;101739.81;;;24.54;37.68
57102;BME280;42982;54.558;18.508;2023-05-21T08:36:43;101744.75;;;24.48;38.05
57102;BME280;42982;54.558;18.508;2023-05-21T08:38:09;101732.03;;;24.31;37.39
57102;BME280;42982;54.558;18.508;2023-05-21T08:39:18;101730.63;;;24.13;38.37
57102;BME280;42982;54.558;18.508;2023-05-21T08:40:21;101736.81;;;24.22;38.61
57102;BME280;42982;54.558;18.508;2023-05-21T08:41:23;101740.84;;;24.24;38.32
57102;BME280;42982;54.558;18.508;2023-05-21T08:42:56;101734.09;;;24.34;38.67
57102;BME280;42982;54.558;18.508;2023-05-21T08:44:12;101728.69;;;24.25;38.44
57102;BME280;42982;54.558;18.508;2023-05-21T08:45:21;101749.75;;;24.21;39.06
57102;BME280;42982;54.558;18.508;2023-05-21T08:46:24;101738.50;;;23.90;39.11
57102;BME280;42982;54.558;18.508;2023-05-21T08:47:33;101738.00;;;23.75;39.78
57102;BME280;42982;54.558;18.508;2023-05-21T08:48:37;101748.88;;;23.72;40.52
57102;BME280;42982;54.558;18.508;2023-05-21T08:49:44;101740.16;;;23.70;40.94
57102;BME280;42982;54.558;18.508;2023-05-21T08:50:51;101743.09;;;23.65;39.89
57102;BME280;42982;54.558;18.508;2023-05-21T08:52:04;101733.59;;;23.62;40.18
57102;BME280;42982;54.558;18.508;2023-05-21T08:53:07;101734.28;;;23.59;41.86
57102;BME280;42982;54.558;18.508;2023-05-21T08:54:11;101739.28;;;23.57;41.76
57102;BME280;42982;54.558;18.508;2023-05-21T08:55:17;101745.25;;;23.59;42.33
57102;BME280;42982;54.558;18.508;2023-05-21T08:56:19;101739.97;;;23.54;43.54
57102;BME280;42982;54.558;18.508;2023-05-21T08:57:30;101742.94;;;23.49;43.94
57102;BME280;42982;54.558;18.508;2023-05-21T08:58:32;101742.66;;;23.42;43.66
57102;BME280;42982;54.558;18.508;2023-05-21T08:59:39;101742.03;;;23.24;42.84
57102;BME280;42982;54.558;18.508;2023-05-21T09:00:52;101735.94;;;23.18;44.75
57102;BME280;42982;54.558;18.508;2023-05-21T09:02:00;101732.72;;;23.16;45.32
57102;BME280;42982;54.558;18.508;2023-05-21T09:03:09;101740.94;;;23.16;45.27
57102;BME280;42982;54.558;18.508;2023-05-21T09:04:16;101740.69;;;23.09;45.58
57102;BME280;42982;54.558;18.508;2023-05-21T09:06:29;101745.03;;;23.10;45.77
57102;BME280;42982;54.558;18.508;2023-05-21T09:08:34;101743.91;;;23.11;45.53
57102;BME280;42982;54.558;18.508;2023-05-21T09:09:46;101747.72;;;23.19;45.73
57102;BME280;42982;54.558;18.508;2023-05-21T09:10:52;101752.53;;;23.22;45.44
57102;BME280;42982;54.558;18.508;2023-05-21T09:12:00;101745.31;;;23.17;45.64
57102;BME280;42982;54.558;18.508;2023-05-21T09:13:02;101733.13;;;23.06;45.56
57102;BME280;42982;54.558;18.508;2023-05-21T09:14:06;101741.84;;;23.08;45.89
57102;BME280;42982;54.558;18.508;2023-05-21T09:15:21;101740.22;;;23.07;45.10
57102;BME280;42982;54.558;18.508;2023-05-21T09:16:25;101744.91;;;23.06;45.30
57102;BME280;42982;54.558;18.508;2023-05-21T09:17:33;101745.25;;;23.05;45.10
57102;BME280;42982;54.558;18.508;2023-05-21T09:19:00;101741.59;;;22.92;45.19
57102;BME280;42982;54.558;18.508;2023-05-21T09:22:23;101737.16;;;22.79;45.30
57102;BME280;42982;54.558;18.508;2023-05-21T09:23:29;101738.97;;;22.75;45.68
57102;BME280;42982;54.558;18.508;2023-05-21T09:24:31;101734.16;;;22.72;45.26
57102;BME280;42982;54.558;18.508;2023-05-21T09:25:37;101738.31;;;22.48;44.99
57102;BME280;42982;54.558;18.508;2023-05-21T09:26:43;101739.84;;;22.28;45.72
57102;BME280;42982;54.558;18.508;2023-05-21T09:27:48;101735.53;;;22.27;46.29
57102;BME280;42982;54.558;18.508;2023-05-21T09:28:56;101740.63;;;22.37;45.98
57102;BME280;42982;54.558;18.508;2023-05-21T09:29:57;101739.31;;;22.43;45.86
57102;BME280;42982;54.558;18.508;2023-05-21T09:31:02;101731.56;;;22.46;45.64
57102;BME280;42982;54.558;18.508;2023-05-21T09:32:07;101734.09;;;22.51;45.74
57102;BME280;42982;54.558;18.508;2023-05-21T09:33:26;101736.34;;;22.57;45.83
57102;BME280;42982;54.558;18.508;2023-05-21T09:34:30;101741.88;;;22.49;46.21
57102;BME280;42982;54.558;18.508;2023-05-21T09:35:32;101733.25;;;22.29;45.20
57102;BME280;42982;54.558;18.508;2023-05-21T09:36:37;101741.16;;;22.22;45.71
57102;BME280;42982;54.558;18.508;2023-05-21T09:37:41;101738.13;;;22.15;44.98
57102;BME280;42982;54.558;18.508;2023-05-21T09:38:49;101745.03;;;22.12;45.98
57102;BME280;42982;54.558;18.508;2023-05-21T09:39:52;101746.34;;;22.06;45.55
57102;BME280;42982;54.558;18.508;2023-05-21T09:40:54;101738.66;;;21.99;45.73
57102;BME280;42982;54.558;18.508;2023-05-21T09:42:00;101741.09;;;21.92;45.97
57102;BME280;42982;54.558;18.508;2023-05-21T09:43:05;101752.25;;;21.70;45.87
57102;BME280;42982;54.558;18.508;2023-05-21T09:44:09;101749.22;;;21.63;46.45
57102;BME280;42982;54.558;18.508;2023-05-21T09:45:11;101748.25;;;21.59;46.19
57102;BME280;42982;54.558;18.508;2023-05-21T09:46:22;101745.06;;;21.39;46.43
57102;BME280;42982;54.558;18.508;2023-05-21T09:47:28;101741.19;;;21.40;46.96
57102;BME280;42982;54.558;18.508;2023-05-21T09:48:38;101747.63;;;21.44;46.11
57102;BME280;42982;54.558;18.508;2023-05-21T09:49:43;101752.75;;;21.37;45.74
57102;BME280;42982;54.558;18.508;2023-05-21T09:50:45;101751.78;;;21.33;45.89
57102;BME280;42982;54.558;18.508;2023-05-21T09:51:48;101746.00;;;21.26;46.24
57102;BME280;42982;54.558;18.508;2023-05-21T09:52:50;101746.00;;;21.26;46.11
57102;BME280;42982;54.558;18.508;2023-05-21T09:53:57;101749.69;;;21.30;46.55
57102;BME280;42982;54.558;18.508;2023-05-21T09:54:59;101752.59;;;21.25;46.39
57102;BME280;42982;54.558;18.508;2023-05-21T09:56:01;101749.06;;;21.16;46.86
57102;BME280;42982;54.558;18.508;2023-05-21T09:57:06;101747.13;;;21.25;46.44
57102;BME280;42982;54.558;18.508;2023-05-21T09:58:09;101759.19;;;21.24;46.64
57102;BME280;42982;54.558;18.508;2023-05-21T09:59:11;101751.63;;;21.29;46.58
57102;BME280;42982;54.558;18.508;2023-05-21T10:00:26;101751.13;;;21.27;46.93
57102;BME280;42982;54.558;18.508;2023-05-21T10:01:29;101751.78;;;21.24;46.70
57102;BME280;42982;54.558;18.508;2023-05-21T10:02:31;101759.81;;;21.29;46.85
57102;BME280;42982;54.558;18.508;2023-05-21T10:03:37;101756.28;;;21.12;45.35
57102;BME280;42982;54.558;18.508;2023-05-21T10:04:43;101757.56;;;20.97;45.85
57102;BME280;42982;54.558;18.508;2023-05-21T10:05:49;101747.91;;;20.91;45.85
57102;BME280;42982;54.558;18.508;2023-05-21T10:06:54;101749.50;;;20.83;46.52
57102;BME280;42982;54.558;18.508;2023-05-21T10:08:02;101749.84;;;20.90;46.84
57102;BME280;42982;54.558;18.508;2023-05-21T10:09:11;101742.25;;;20.96;47.43
57102;BME280;42982;54.558;18.508;2023-05-21T10:10:14;101753.72;;;21.06;47.30
57102;BME280;42982;54.558;18.508;2023-05-21T10:11:18;101747.75;;;21.04;47.00
57102;BME280;42982;54.558;18.508;2023-05-21T10:12:23;101749.22;;;21.11;47.23
57102;BME280;42982;54.558;18.508;2023-05-21T10:13:27;101741.31;;;21.18;47.93
57102;BME280;42982;54.558;18.508;2023-05-21T10:14:30;101746.94;;;21.21;46.34
57102;BME280;42982;54.558;18.508;2023-05-21T10:15:49;101746.63;;;21.23;46.02
57102;BME280;42982;54.558;18.508;2023-05-21T10:16:56;101745.84;;;21.22;46.62
57102;BME280;42982;54.558;18.508;2023-05-21T10:17:59;101746.78;;;21.26;46.70
57102;BME280;42982;54.558;18.508;2023-05-21T10:19:01;101751.63;;;21.29;46.63
57102;BME280;42982;54.558;18.508;2023-05-21T10:20:05;101752.75;;;21.37;46.63
57102;BME280;42982;54.558;18.508;2023-05-21T10:21:07;101745.34;;;21.46;46.20
57102;BME280;42982;54.558;18.508;2023-05-21T10:22:10;101750.03;;;21.55;45.89
57102;BME280;42982;54.558;18.508;2023-05-21T10:23:13;101750.97;;;21.59;45.39
57102;BME280;42982;54.558;18.508;2023-05-21T10:24:16;101748.75;;;21.52;45.06
57102;BME280;42982;54.558;18.508;2023-05-21T10:25:19;101748.44;;;21.54;44.72
57102;BME280;42982;54.558;18.508;2023-05-21T10:26:22;101747.94;;;21.51;44.39
57102;BME280;42982;54.558;18.508;2023-05-21T10:27:24;101740.53;;;21.43;44.80
57102;BME280;42982;54.558;18.508;2023-05-21T10:28:28;101747.75;;;21.30;44.54
57102;BME280;42982;54.558;18.508;2023-05-21T10:29:31;101741.31;;;21.18;45.08
57102;BME280;42982;54.558;18.508;2023-05-21T10:30:34;101747.28;;;21.20;44.80
57102;BME280;42982;54.558;18.508;2023-05-21T10:31:37;101745.50;;;21.24;44.68
57102;BME280;42982;54.558;18.508;2023-05-21T10:32:39;101753.88;;;21.27;45.04
57102;BME280;42982;54.558;18.508;2023-05-21T10:33:42;101750.97;;;21.24;44.80
57102;BME280;42982;54.558;18.508;2023-05-21T10:34:43;101749.22;;;21.28;45.01
57102;BME280;42982;54.558;18.508;2023-05-21T10:35:47;101742.66;;;21.38;45.13
57102;BME280;42982;54.558;18.508;2023-05-21T10:36:49;101749.06;;;21.42;45.29
57102;BME280;42982;54.558;18.508;2023-05-21T10:37:53;101747.28;;;21.28;45.37
57102;BME280;42982;54.558;18.508;2023-05-21T10:38:59;101746.78;;;21.26;45.41
57102;BME280;42982;54.558;18.508;2023-05-21T10:40:00;101745.84;;;21.22;45.43
57102;BME280;42982;54.558;18.508;2023-05-21T10:41:04;101747.78;;;21.22;45.43
57102;BME280;42982;54.558;18.508;2023-05-21T10:42:20;101743.09;;;21.22;45.26
57102;BME280;42982;54.558;18.508;2023-05-21T10:44:56;101743.09;;;21.14;45.24
57102;BME280;42982;54.558;18.508;2023-05-21T10:50:32;101743.56;;;21.24;44.40
57102;BME280;42982;54.558;18.508;2023-05-21T10:53:12;101741.66;;;21.25;45.18
57102;BME280;42982;54.558;18.508;2023-05-21T10:55:35;101739.25;;;21.32;44.79
57102;BME280;42982;54.558;18.508;2023-05-21T10:56:45;101736.34;;;21.20;44.85
57102;BME280;42982;54.558;18.508;2023-05-21T11:00:26;101729.56;;;21.17;44.91
57102;BME280;42982;54.558;18.508;2023-05-21T11:01:30;101724.75;;;21.23;44.82
57102;BME280;42982;54.558;18.508;2023-05-21T11:02:33;101730.06;;;21.28;44.09
57102;BME280;42982;54.558;18.508;2023-05-21T11:03:38;101719.28;;;21.23;44.17
57102;BME280;42982;54.558;18.508;2023-05-21T11:04:48;101733.91;;;21.27;44.16
57102;BME280;42982;54.558;18.508;2023-05-21T11:06:01;101736.97;;;21.17;42.61
57102;BME280;42982;54.558;18.508;2023-05-21T11:07:08;101728.13;;;20.94;43.62
57102;BME280;42982;54.558;18.508;2023-05-21T11:08:22;101723.44;;;20.77;44.20
57102;BME280;42982;54.558;18.508;2023-05-21T11:09:23;101731.31;;;20.70;44.98
57102;BME280;42982;54.558;18.508;2023-05-21T11:10:40;101744.25;;;20.47;46.60
57102;BME280;42982;54.558;18.508;2023-05-21T11:11:46;101740.13;;;20.18;48.06
57102;BME280;42982;54.558;18.508;2023-05-21T11:16:01;101735.91;;;19.81;50.28
57102;BME280;42982;54.558;18.508;2023-05-21T11:17:14;101734.03;;;19.90;51.04
57102;BME280;42982;54.558;18.508;2023-05-21T11:18:16;101725.06;;;19.98;50.80
57102;BME280;42982;54.558;18.508;2023-05-21T11:19:18;101721.25;;;20.08;50.81
57102;BME280;42982;54.558;18.508;2023-05-21T11:20:20;101729.50;;;20.17;50.23
57102;BME280;42982;54.558;18.508;2023-05-21T12:45:19;101719.28;;;20.40;41.66
57102;BME280;42982;54.558;18.508;2023-05-21T12:46:24;101704.03;;;20.38;40.72
57102;BME280;42982;54.558;18.508;2023-05-21T12:47:30;101704.19;;;20.42;41.98
57102;BME280;42982;54.558;18.508;2023-05-21T12:48:33;101712.38;;;20.42;42.16
57102;BME280;42982;54.558;18.508;2023-05-21T12:49:42;101709.34;;;20.44;41.14
57102;BME280;42982;54.558;18.508;2023-05-21T12:50:44;101702.47;;;20.46;41.73
57102;BME280;42982;54.558;18.508;2023-05-21T17:27:52;101578.97;;;18.12;43.69
57102;BME280;42982;54.558;18.508;2023-05-21T17:28:54;101577.34;;;18.11;43.87
57102;BME280;42982;54.558;18.508;2023-05-21T17:29:57;101573.03;;;18.10;43.66
57102;BME280;42982;54.558;18.508;2023-05-21T17:30:58;101573.03;;;18.10;43.46
57102;BME280;42982;54.558;18.508;2023-05-21T17:32:01;101577.97;;;18.08;43.79
57102;BME280;42982;54.558;18.508;2023-05-21T18:47:46;101584.63;;;15.71;58.20
57102;BME280;42982;54.558;18.508;2023-05-21T18:48:49;101577.59;;;15.94;58.33
57102;BME280;42982;54.558;18.508;2023-05-21T18:49:50;101581.38;;;16.17;57.31
57102;BME280;42982;54.558;18.508;2023-05-21T18:50:52;101589.09;;;16.29;56.48
57102;BME280;42982;54.558;18.508;2023-05-21T18:51:55;101586.69;;;16.28;56.15
57102;BME280;42982;54.558;18.508;2023-05-21T18:52:59;101592.50;;;16.16;56.04
57102;BME280;42982;54.558;18.508;2023-05-21T18:54:04;101589.84;;;16.11;56.22
57102;BME280;42982;54.558;18.508;2023-05-21T18:55:08;101585.63;;;16.05;56.45
57102;BME280;42982;54.558;18.508;2023-05-21T18:56:11;101594.34;;;16.02;56.65
57102;BME280;42982;54.558;18.508;2023-05-21T18:57:17;101600.03;;;16.00;56.68
57102;BME280;42982;54.558;18.508;2023-05-21T18:58:18;101615.19;;;16.01;56.75
57102;BME280;42982;54.558;18.508;2023-05-21T18:59:20;101606.78;;;16.03;57.08
57102;BME280;42982;54.558;18.508;2023-05-21T19:00:23;101605.19;;;16.02;57.27
57102;BME280;42982;54.558;18.508;2023-05-21T19:01:24;101612.00;;;15.99;57.24
57102;BME280;42982;54.558;18.508;2023-05-21T19:02:29;101604.13;;;15.97;57.44
57102;BME280;42982;54.558;18.508;2023-05-21T19:03:38;101606.25;;;16.01;57.39
57102;BME280;42982;54.558;18.508;2023-05-21T19:04:42;101605.75;;;15.98;57.74
57102;BME280;42982;54.558;18.508;2023-05-21T19:05:46;101605.25;;;15.96;57.71
57102;BME280;42982;54.558;18.508;2023-05-21T19:06:47;101600.09;;;15.95;57.91
57102;BME280;42982;54.558;18.508;2023-05-21T19:07:51;101599.81;;;15.96;58.07
57102;BME280;42982;54.558;18.508;2023-05-21T19:08:52;101603.91;;;15.94;58.13
57102;BME280;42982;54.558;18.508;2023-05-21T19:09:58;101601.50;;;15.92;58.34
57102;BME280;42982;54.558;18.508;2023-05-21T19:11:00;101606.09;;;15.92;58.34
57102;BME280;42982;54.558;18.508;2023-05-21T19:12:02;101598.25;;;15.90;58.02
57102;BME280;42982;54.558;18.508;2023-05-21T19:13:04;101595.81;;;15.89;58.02
57102;BME280;42982;54.558;18.508;2023-05-21T19:14:07;101605.84;;;15.88;58.03
57102;BME280;42982;54.558;18.508;2023-05-21T19:15:11;101598.25;;;15.90;57.55
57102;BME280;42982;54.558;18.508;2023-05-21T19:16:13;101595.22;;;15.92;57.28
57102;BME280;42982;54.558;18.508;2023-05-21T19:17:15;101603.91;;;15.94;57.41
57102;BME280;42982;54.558;18.508;2023-05-21T19:18:17;101598.47;;;15.94;57.26
57102;BME280;42982;54.558;18.508;2023-05-21T19:19:19;101604.69;;;15.94;57.31
57102;BME280;42982;54.558;18.508;2023-05-21T19:20:25;101611.50;;;15.92;57.20
57102;BME280;42982;54.558;18.508;2023-05-21T19:21:27;101605.28;;;15.91;56.88
57102;BME280;42982;54.558;18.508;2023-05-21T19:22:30;101596.06;;;15.92;56.02
57102;BME280;42982;54.558;18.508;2023-05-21T19:23:32;101600.91;;;15.95;55.45
57102;BME280;42982;54.558;18.508;2023-05-21T19:24:34;101602.75;;;16.00;55.57
57102;BME280;42982;54.558;18.508;2023-05-21T19:25:36;101604.13;;;15.97;55.31
57102;BME280;42982;54.558;18.508;2023-05-21T19:26:38;101600.16;;;15.90;54.91
57102;BME280;42982;54.558;18.508;2023-05-21T19:27:40;101594.03;;;15.79;55.28
57102;BME280;42982;54.558;18.508;2023-05-21T19:28:41;101593.00;;;15.75;55.47
57102;BME280;42982;54.558;18.508;2023-05-21T19:29:43;101595.19;;;15.73;55.57
57102;BME280;42982;54.558;18.508;2023-05-21T19:30:47;101588.44;;;15.70;55.56
57102;BME280;42982;54.558;18.508;2023-05-21T19:31:50;101591.16;;;15.70;55.56
57102;BME280;42982;54.558;18.508;2023-05-21T19:32:57;101596.28;;;15.72;55.94
57102;BME280;42982;54.558;18.508;2023-05-21T19:33:59;101591.38;;;15.74;56.01
57102;BME280;42982;54.558;18.508;2023-05-21T19:35:02;101593.22;;;15.79;56.08
57102;BME280;42982;54.558;18.508;2023-05-21T19:36:06;101594.56;;;15.81;56.09
57102;BME280;42982;54.558;18.508;2023-05-21T19:37:08;101595.59;;;15.85;55.85
57102;BME280;42982;54.558;18.508;2023-05-21T19:38:10;101589.94;;;15.82;55.80
57102;BME280;42982;54.558;18.508;2023-05-21T19:39:14;101598.81;;;15.87;55.78
57102;BME280;42982;54.558;18.508;2023-05-21T19:40:16;101604.47;;;15.91;56.07
57102;BME280;42982;54.558;18.508;2023-05-21T19:41:18;101610.72;;;15.91;55.74
57102;BME280;42982;54.558;18.508;2023-05-21T19:42:20;101597.22;;;15.86;54.92
57102;BME280;42982;54.558;18.508;2023-05-21T19:43:22;101597.22;;;15.86;54.68
57102;BME280;42982;54.558;18.508;2023-05-21T19:44:25;101603.44;;;15.87;54.97
57102;BME280;42982;54.558;18.508;2023-05-21T19:45:27;101593.97;;;15.84;54.58
57102;BME280;42982;54.558;18.508;2023-05-21T19:46:31;101599.63;;;15.88;54.59
57102;BME280;42982;54.558;18.508;2023-05-21T19:47:33;101595.81;;;15.89;54.14
57102;BME280;42982;54.558;18.508;2023-05-21T19:48:38;101602.34;;;15.88;54.23
57102;BME280;42982;54.558;18.508;2023-05-21T19:49:40;101602.66;;;15.86;54.24
57102;BME280;42982;54.558;18.508;2023-05-21T19:50:42;101600.50;;;15.83;54.14
57102;BME280;42982;54.558;18.508;2023-05-21T19:51:47;101607.84;;;15.83;54.23
57102;BME280;42982;54.558;18.508;2023-05-21T19:52:50;101602.13;;;15.84;54.45
57102;BME280;42982;54.558;18.508;2023-05-21T19:53:53;101599.41;;;15.84;54.08
57102;BME280;42982;54.558;18.508;2023-05-21T19:54:55;101601.53;;;15.87;54.35
57102;BME280;42982;54.558;18.508;2023-05-21T19:56:07;101598.25;;;15.90;54.23
57102;BME280;42982;54.558;18.508;2023-05-21T19:57:10;101602.56;;;15.91;53.99
57102;BME280;42982;54.558;18.508;2023-05-21T19:58:14;101598.25;;;15.90;54.22
57102;BME280;42982;54.558;18.508;2023-05-21T19:59:18;101597.44;;;15.90;54.36
57102;BME280;42982;54.558;18.508;2023-05-21T20:00:20;101600.66;;;15.92;54.33
57102;BME280;42982;54.558;18.508;2023-05-21T20:01:23;101593.34;;;15.92;53.86
57102;BME280;42982;54.558;18.508;2023-05-21T20:02:26;101596.06;;;15.92;53.49
57102;BME280;42982;54.558;18.508;2023-05-21T20:03:30;101601.50;;;15.92;53.35
57102;BME280;42982;54.558;18.508;2023-05-21T20:04:35;101597.16;;;15.91;53.29
57102;BME280;42982;54.558;18.508;2023-05-21T20:05:37;101594.97;;;15.93;53.58
57102;BME280;42982;54.558;18.508;2023-05-21T20:06:40;101598.69;;;15.97;53.94
57102;BME280;42982;54.558;18.508;2023-05-21T20:07:42;101608.97;;;16.01;53.78
57102;BME280;42982;54.558;18.508;2023-05-21T20:08:44;101594.34;;;16.02;53.94
57102;BME280;42982;54.558;18.508;2023-05-21T20:09:57;101591.31;;;16.03;54.37
57102;BME280;42982;54.558;18.508;2023-05-21T20:10:58;101592.94;;;16.04;54.38
57102;BME280;42982;54.558;18.508;2023-05-21T20:12:00;101598.34;;;16.04;54.55
57102;BME280;42982;54.558;18.508;2023-05-21T20:13:06;101592.13;;;16.04;54.60
57102;BME280;42982;54.558;18.508;2023-05-21T20:14:09;101590.00;;;16.01;54.63
57102;BME280;42982;54.558;18.508;2023-05-21T20:15:13;101601.38;;;16.03;54.94
57102;BME280;42982;54.558;18.508;2023-05-21T20:16:16;101594.03;;;16.03;54.74
57102;BME280;42982;54.558;18.508;2023-05-21T20:17:17;101595.38;;;16.06;54.48
57102;BME280;42982;54.558;18.508;2023-05-21T20:18:21;101600.00;;;16.05;54.53
57102;BME280;42982;54.558;18.508;2023-05-21T20:19:27;101601.38;;;16.03;54.24
57102;BME280;42982;54.558;18.508;2023-05-21T20:20:30;101598.13;;;16.01;54.54
57102;BME280;42982;54.558;18.508;2023-05-21T20:21:35;101599.22;;;15.99;54.86
57102;BME280;42982;54.558;18.508;2023-05-21T20:22:39;101594.66;;;15.95;54.50
57102;BME280;42982;54.558;18.508;2023-05-21T20:23:42;101595.81;;;15.89;54.58
57102;BME280;42982;54.558;18.508;2023-05-21T20:24:44;101602.88;;;15.90;54.43
57102;BME280;42982;54.558;18.508;2023-05-21T20:25:48;101598.78;;;15.92;54.38
57102;BME280;42982;54.558;18.508;2023-05-21T20:26:51;101606.63;;;15.94;54.15
57102;BME280;42982;54.558;18.508;2023-05-21T20:27:59;101604.44;;;15.96;54.26
57102;BME280;42982;54.558;18.508;2023-05-21T20:29:07;101601.41;;;15.97;53.86
57102;BME280;42982;54.558;18.508;2023-05-21T20:30:13;101600.38;;;15.93;53.29
57102;BME280;42982;54.558;18.508;2023-05-21T20:31:16;101612.09;;;15.89;53.29
57102;BME280;42982;54.558;18.508;2023-05-21T20:32:21;101607.50;;;15.89;53.31
57102;BME280;42982;54.558;18.508;2023-05-21T20:33:23;101605.28;;;15.91;53.01
57102;BME280;42982;54.558;18.508;2023-05-21T20:34:25;101610.66;;;15.96;52.66
57102;BME280;42982;54.558;18.508;2023-05-21T20:35:33;101609.50;;;16.03;52.31
57102;BME280;42982;54.558;18.508;2023-05-21T20:36:49;101609.19;;;16.04;52.61
57102;BME280;42982;54.558;18.508;2023-05-21T20:37:52;101615.47;;;16.05;52.70
57102;BME280;42982;54.558;18.508;2023-05-21T20:38:54;101611.41;;;16.02;52.48
57102;BME280;42982;54.558;18.508;2023-05-21T20:39:58;101611.19;;;15.98;52.21
57102;BME280;42982;54.558;18.508;2023-05-21T20:41:00;101614.13;;;16.02;52.33
57102;BME280;42982;54.558;18.508;2023-05-21T20:42:04;101608.41;;;16.04;52.25
57102;BME280;42982;54.558;18.508;2023-05-21T20:43:10;101606.22;;;16.06;52.10
57102;BME280;42982;54.558;18.508;2023-05-21T20:44:12;101602.41;;;16.07;52.06
57102;BME280;42982;54.558;18.508;2023-05-21T20:45:14;101605.63;;;16.09;52.30
57102;BME280;42982;54.558;18.508;2023-05-21T20:46:18;101608.03;;;16.10;51.89
57102;BME280;42982;54.558;18.508;2023-05-21T20:47:24;101616.50;;;16.09;52.19
57102;BME280;42982;54.558;18.508;2023-05-21T20:48:25;101607.38;;;15.99;52.60
57102;BME280;42982;54.558;18.508;2023-05-21T20:49:32;101614.22;;;15.92;52.77
57102;BME280;42982;54.558;18.508;2023-05-21T20:50:38;101602.06;;;15.89;53.17
57102;BME280;42982;54.558;18.508;2023-05-21T20:51:45;101604.03;;;15.84;53.10
57102;BME280;42982;54.558;18.508;2023-05-21T20:52:49;101604.03;;;15.84;52.90
57102;BME280;42982;54.558;18.508;2023-05-21T20:53:55;101598.03;;;15.87;52.80